Time;durP1;ratioP1;P1;durP2;ratioP2;P2;SDS_P1;SDS_P2;PMS_P1;PMS_P2;Temp;Humidity;BMP_temperature;BMP_pressure;BME280_temperature;BME280_humidity;BME280_pressure;Samples;Min_cycle;Max_cycle;Signal;HPM_P1;HPM_P2
2023/10/02 00:00:39;;;;;;;;;;;;;;;18.14;100.00;98722.78;5111880;28;19924;-67
2023/10/02 00:03:09;;;;;;;;;;;;;;;18.16;100.00;98720.63;5117972;28;19984;-67
2023/10/02 00:05:41;;;;;;;;;;;;;;;18.16;100.00;98720.63;5117979;28;19930;-67
2023/10/02 00:08:07;;;;;;;;;;;;;;;18.16;100.00;98712.50;5118043;28;19981;-67
2023/10/02 00:10:34;;;;;;;;;;;;;;;18.17;100.00;98719.50;5118919;28;19924;-67
2023/10/02 00:13:01;;;;;;;;;;;;;;;18.16;100.00;98717.91;5100149;28;19965;-67
2023/10/02 00:15:29;;;;;;;;;;;;;;;18.15;100.00;98719.00;5116252;28;19924;-67
2023/10/02 00:17:57;;;;;;;;;;;;;;;18.16;100.00;98719.81;5110106;28;20430;-68
2023/10/02 00:20:23;;;;;;;;;;;;;;;18.14;100.00;98716.56;5120445;28;20007;-66
2023/10/02 00:22:52;;;;;;;;;;;;;;;18.13;100.00;98715.81;5116748;28;19999;-66
2023/10/02 00:25:20;;;;;;;;;;;;;;;18.12;100.00;98716.88;5117700;28;19924;-67
2023/10/02 00:27:48;;;;;;;;;;;;;;;18.10;100.00;98707.47;5118039;28;19924;-67
2023/10/02 00:30:16;;;;;;;;;;;;;;;18.07;100.00;98716.94;5118328;28;19930;-67
2023/10/02 00:32:45;;;;;;;;;;;;;;;18.03;100.00;98710.53;5114469;28;19924;-67
2023/10/02 00:35:12;;;;;;;;;;;;;;;18.02;100.00;98708.91;5114396;28;19980;-67
2023/10/02 00:37:45;;;;;;;;;;;;;;;18.04;100.00;98712.13;5117410;28;19935;-67
2023/10/02 00:40:13;;;;;;;;;;;;;;;18.04;100.00;98706.72;5117911;28;19932;-67
2023/10/02 00:42:39;;;;;;;;;;;;;;;18.03;100.00;98705.13;5117925;28;19950;-67
2023/10/02 00:45:08;;;;;;;;;;;;;;;18.02;100.00;98708.09;5116364;28;20855;-68
2023/10/02 00:47:41;;;;;;;;;;;;;;;18.01;100.00;98691.06;5119099;28;19924;-67
2023/10/02 00:50:10;;;;;;;;;;;;;;;18.03;100.00;98702.41;5113937;28;19966;-67
2023/10/02 00:52:43;;;;;;;;;;;;;;;18.03;100.00;98697.00;5115045;28;19963;-67
2023/10/02 00:55:11;;;;;;;;;;;;;;;18.02;100.00;98694.59;5121473;28;19924;-67
2023/10/02 00:57:38;;;;;;;;;;;;;;;17.99;100.00;98693.28;5122246;28;19924;-67
2023/10/02 01:00:06;;;;;;;;;;;;;;;18.00;100.00;98700.28;5116116;28;19948;-67
2023/10/02 01:02:34;;;;;;;;;;;;;;;18.00;100.00;98694.09;5125954;28;19943;-67
2023/10/02 01:05:04;;;;;;;;;;;;;;;17.98;100.00;98702.47;5123553;28;19924;-67
2023/10/02 01:07:33;;;;;;;;;;;;;;;17.97;100.00;98706.28;5121218;28;20030;-68
2023/10/02 01:10:11;;;;;;;;;;;;;;;17.97;100.00;98700.06;5119951;28;19924;-68
2023/10/02 01:12:44;;;;;;;;;;;;;;;17.87;100.00;98701.00;5123784;28;19954;-67
2023/10/02 01:15:12;;;;;;;;;;;;;;;17.84;100.00;98700.78;5117331;28;19931;-67
2023/10/02 01:17:40;;;;;;;;;;;;;;;17.83;100.00;98694.56;5101627;28;19924;-67
2023/10/02 01:20:20;;;;;;;;;;;;;;;17.87;100.00;98706.41;5120852;28;19924;-67
2023/10/02 01:22:51;;;;;;;;;;;;;;;17.87;100.00;98689.41;5117909;28;19924;-67
2023/10/02 01:25:23;;;;;;;;;;;;;;;17.88;100.00;98693.72;5117320;28;19920;-67
2023/10/02 01:27:51;;;;;;;;;;;;;;;17.88;100.00;98685.59;5117870;28;19946;-67
2023/10/02 01:30:18;;;;;;;;;;;;;;;17.88;100.00;98686.41;5099002;28;19988;-68
2023/10/02 01:33:06;;;;;;;;;;;;;;;17.85;100.00;98687.00;5119095;28;19960;-67
2023/10/02 01:35:34;;;;;;;;;;;;;;;17.85;100.00;98688.91;5120465;28;19928;-67
2023/10/02 01:38:00;;;;;;;;;;;;;;;17.84;100.00;98687.28;5120477;28;19920;-67
2023/10/02 01:40:33;;;;;;;;;;;;;;;17.82;100.00;98690.28;5120567;28;19931;-68
2023/10/02 01:43:12;;;;;;;;;;;;;;;17.81;100.00;98691.38;5119648;28;19924;-68
2023/10/02 01:45:42;;;;;;;;;;;;;;;17.79;100.00;98693.56;5119777;28;19928;-68
2023/10/02 01:48:09;;;;;;;;;;;;;;;17.78;100.00;98687.34;5113306;28;19975;-68
2023/10/02 01:50:36;;;;;;;;;;;;;;;17.78;100.00;98686.53;5120963;28;19924;-68
2023/10/02 01:53:05;;;;;;;;;;;;;;;17.78;100.00;98691.94;5119624;28;19951;-67
2023/10/02 01:55:35;;;;;;;;;;;;;;;17.77;100.00;98691.13;5115156;28;20614;-67
2023/10/02 01:58:16;;;;;;;;;;;;;;;17.77;100.00;98690.34;5099706;28;19983;-67
2023/10/02 02:00:45;;;;;;;;;;;;;;;17.76;100.00;98688.75;5119634;28;19955;-67
2023/10/02 02:03:15;;;;;;;;;;;;;;;17.74;100.00;98685.50;5120268;28;19924;-67
2023/10/02 02:05:44;;;;;;;;;;;;;;;17.74;100.00;98682.81;5119979;28;19965;-67
2023/10/02 02:08:22;;;;;;;;;;;;;;;17.73;100.00;98678.53;5119774;28;19920;-67
2023/10/02 02:10:50;;;;;;;;;;;;;;;17.71;100.00;98686.09;5117028;28;19931;-68
2023/10/02 02:13:17;;;;;;;;;;;;;;;17.71;100.00;98691.50;5097815;28;19943;-67
2023/10/02 02:15:45;;;;;;;;;;;;;;;17.70;100.00;98684.50;5118392;28;19931;-67
2023/10/02 02:18:14;;;;;;;;;;;;;;;17.69;100.00;98675.59;5116276;28;19924;-67
2023/10/02 02:20:57;;;;;;;;;;;;;;;17.67;100.00;98680.47;5120061;28;19924;-68
2023/10/02 02:23:26;;;;;;;;;;;;;;;17.65;100.00;98676.44;5119964;28;19931;-67
2023/10/02 02:25:53;;;;;;;;;;;;;;;17.62;100.00;98669.72;5117805;28;19924;-67
2023/10/02 02:28:20;;;;;;;;;;;;;;;17.61;100.00;98670.81;5116046;28;19987;-67
2023/10/02 02:30:47;;;;;;;;;;;;;;;17.62;100.00;98674.31;5117808;28;19924;-67
2023/10/02 02:33:14;;;;;;;;;;;;;;;17.61;100.00;98676.22;5119391;28;19959;-67
2023/10/02 02:35:41;;;;;;;;;;;;;;;17.60;100.00;98676.53;5119267;28;19946;-67
2023/10/02 02:38:14;;;;;;;;;;;;;;;17.57;100.00;98671.69;5115707;28;19955;-67
2023/10/02 02:40:40;;;;;;;;;;;;;;;17.55;100.00;98676.56;5120403;28;19928;-66
2023/10/02 02:43:13;;;;;;;;;;;;;;;17.52;100.00;98680.63;5119827;28;19927;-67
2023/10/02 02:45:38;;;;;;;;;;;;;;;17.54;100.00;98683.06;5117663;28;19928;-66
2023/10/02 02:48:08;;;;;;;;;;;;;;;17.53;100.00;98686.84;5118492;28;19923;-67
2023/10/02 02:50:35;;;;;;;;;;;;;;;17.52;100.00;98680.63;5114251;28;19924;-67
2023/10/02 02:53:21;;;;;;;;;;;;;;;17.50;100.00;98679.31;5116423;28;19982;-66
2023/10/02 02:56:10;;;;;;;;;;;;;;;17.51;100.00;98675.53;5118004;28;19931;-66
2023/10/02 02:58:39;;;;;;;;;;;;;;;17.50;100.00;98684.72;5117297;28;19936;-66
2023/10/02 03:01:06;;;;;;;;;;;;;;;17.49;100.00;98678.50;5118995;28;19983;-67
2023/10/02 03:03:33;;;;;;;;;;;;;;;17.49;100.00;98681.19;5118901;28;19932;-67
2023/10/02 03:05:59;;;;;;;;;;;;;;;17.45;100.00;98698.28;5116345;28;19999;-67
2023/10/02 03:08:37;;;;;;;;;;;;;;;17.43;100.00;98695.06;5114915;28;19952;-67
2023/10/02 03:11:06;;;;;;;;;;;;;;;17.35;100.00;98691.09;5115367;28;20001;-67
2023/10/02 03:13:34;;;;;;;;;;;;;;;17.35;100.00;98690.28;5117897;28;19947;-67
2023/10/02 03:16:08;;;;;;;;;;;;;;;17.36;100.00;98689.22;5116550;28;19924;-67
2023/10/02 03:18:36;;;;;;;;;;;;;;;17.35;100.00;98693.81;5118450;28;19928;-67
2023/10/02 03:21:14;;;;;;;;;;;;;;;17.35;100.00;98687.59;5117552;28;20018;-67
2023/10/02 03:23:42;;;;;;;;;;;;;;;17.35;100.00;98693.81;5119813;28;19924;-67
2023/10/02 03:26:21;;;;;;;;;;;;;;;17.36;100.00;98689.22;5112068;28;19965;-67
2023/10/02 03:28:48;;;;;;;;;;;;;;;17.36;100.00;98683.81;5111599;28;19954;-68
2023/10/02 03:31:34;;;;;;;;;;;;;;;17.36;100.00;98694.63;5126769;28;19923;-66
2023/10/02 03:34:01;;;;;;;;;;;;;;;17.38;100.00;98692.41;5117679;28;19924;-66
2023/10/02 03:36:28;;;;;;;;;;;;;;;17.36;100.00;98690.00;5113600;28;19980;-66
2023/10/02 03:38:57;;;;;;;;;;;;;;;17.31;100.00;98681.97;5116923;28;19934;-66
2023/10/02 03:41:44;;;;;;;;;;;;;;;17.32;100.00;98678.19;5119009;28;19983;-66
2023/10/02 03:44:11;;;;;;;;;;;;;;;17.28;100.00;98677.94;5118589;28;20011;-66
2023/10/02 03:46:40;;;;;;;;;;;;;;;17.27;100.00;98670.94;5117477;28;19962;-66
2023/10/02 03:49:08;;;;;;;;;;;;;;;17.26;100.00;98684.72;5118393;28;19924;-66
2023/10/02 03:51:37;;;;;;;;;;;;;;;17.20;100.00;98675.09;5114028;28;19924;-66
2023/10/02 03:54:17;;;;;;;;;;;;;;;17.16;100.00;98674.84;5120059;28;19930;-67
2023/10/02 03:56:47;;;;;;;;;;;;;;;17.15;100.00;98675.13;5115538;28;19931;-67
2023/10/02 03:59:14;;;;;;;;;;;;;;;17.13;100.00;98675.41;5119077;28;19946;-67
2023/10/02 04:01:41;;;;;;;;;;;;;;;17.15;100.00;98673.22;5118621;28;19935;-66
2023/10/02 04:04:19;;;;;;;;;;;;;;;17.12;100.00;98673.00;5118123;28;19943;-67
2023/10/02 04:06:47;;;;;;;;;;;;;;;17.11;100.00;98669.50;5111004;28;19946;-66
2023/10/02 04:09:21;;;;;;;;;;;;;;;17.13;100.00;98670.03;5114063;28;19954;-66
2023/10/02 04:11:48;;;;;;;;;;;;;;;17.11;100.00;98666.78;5116384;28;19930;-66
2023/10/02 04:14:18;;;;;;;;;;;;;;;17.11;100.00;98666.78;5118211;28;19984;-66
2023/10/02 04:16:47;;;;;;;;;;;;;;;17.11;100.00;98672.19;5111569;28;19924;-66
2023/10/02 04:19:15;;;;;;;;;;;;;;;17.10;100.00;98675.19;5118055;28;19992;-66
2023/10/02 04:21:42;;;;;;;;;;;;;;;17.07;100.00;98676.56;5115545;28;19924;-66
2023/10/02 04:24:09;;;;;;;;;;;;;;;17.08;100.00;98680.84;5123400;28;19924;-66
2023/10/02 04:26:36;;;;;;;;;;;;;;;17.08;100.00;98683.56;5114516;28;20026;-66
2023/10/02 04:29:13;;;;;;;;;;;;;;;17.09;100.00;98693.28;5129171;28;19920;-66
2023/10/02 04:31:41;;;;;;;;;;;;;;;17.08;100.00;98680.84;5107510;28;19989;-66
2023/10/02 04:34:29;;;;;;;;;;;;;;;17.08;100.00;98694.34;5118454;28;19990;-67
2023/10/02 04:36:54;;;;;;;;;;;;;;;17.05;100.00;98686.03;5123641;28;19988;-67
2023/10/02 04:42:15;;;;;;;;;;;;;;;17.01;100.00;98683.13;5124945;28;19958;-67
2023/10/02 04:44:47;;;;;;;;;;;;;;;16.97;100.00;98682.06;5106051;28;19924;-67
2023/10/02 04:47:17;;;;;;;;;;;;;;;16.97;100.00;98678.56;5118725;28;19984;-67
2023/10/02 04:50:34;;;;;;;;;;;;;;;16.94;100.00;98685.34;5117931;28;19931;-67
2023/10/02 04:52:55;;;;;;;;;;;;;;;16.94;100.00;98684.53;5122435;28;20026;-68
2023/10/02 04:55:24;;;;;;;;;;;;;;;16.92;100.00;98682.13;5124469;28;19931;-66
2023/10/02 04:57:51;;;;;;;;;;;;;;;16.89;100.00;98682.69;5119390;28;19981;-66
2023/10/02 05:00:32;;;;;;;;;;;;;;;16.86;100.00;98675.16;5121377;28;19969;-66
2023/10/02 05:03:09;;;;;;;;;;;;;;;16.87;100.00;98681.34;5121147;28;19924;-67
2023/10/02 05:05:42;;;;;;;;;;;;;;;16.86;100.00;98685.16;5117368;28;19924;-67
2023/10/02 05:08:18;;;;;;;;;;;;;;;16.86;100.00;98696.75;5117376;28;19924;-66
2023/10/02 05:10:47;;;;;;;;;;;;;;;16.85;100.00;98688.94;5122589;28;19931;-66
2023/10/02 05:13:12;;;;;;;;;;;;;;;16.85;100.00;98694.31;5121064;28;19936;-66
2023/10/02 05:16:06;;;;;;;;;;;;;;;16.83;100.00;98686.53;5119110;28;19992;-67
2023/10/02 05:18:24;;;;;;;;;;;;;;;16.81;100.00;98688.69;5120576;28;19934;-67
2023/10/02 05:20:54;;;;;;;;;;;;;;;16.81;100.00;98687.88;5117934;28;20071;-67
2023/10/02 05:23:21;;;;;;;;;;;;;;;16.81;100.00;98696.78;5117037;28;19932;-67
2023/10/02 05:25:47;;;;;;;;;;;;;;;16.79;100.00;98704.38;5118817;28;19990;-67
2023/10/02 05:28:14;;;;;;;;;;;;;;;16.79;100.00;98696.28;5120435;28;19931;-67
2023/10/02 05:30:43;;;;;;;;;;;;;;;16.80;100.00;98703.28;5120694;28;19992;-67
2023/10/02 05:33:15;;;;;;;;;;;;;;;16.79;100.00;98704.38;5120502;28;19934;-67
2023/10/02 05:35:45;;;;;;;;;;;;;;;16.83;100.00;98704.59;5112411;28;19931;-67
2023/10/02 05:38:16;;;;;;;;;;;;;;;16.82;100.00;98693.00;5116907;28;19967;-67
2023/10/02 05:40:47;;;;;;;;;;;;;;;16.84;100.00;98698.09;5119399;28;19924;-67
2023/10/02 05:43:18;;;;;;;;;;;;;;;16.84;100.00;98704.31;5120309;28;20015;-68
2023/10/02 05:45:53;;;;;;;;;;;;;;;16.83;100.00;98694.63;5120325;28;19931;-67
2023/10/02 05:48:27;;;;;;;;;;;;;;;16.82;100.00;98695.72;5120336;28;19963;-66
2023/10/02 05:50:56;;;;;;;;;;;;;;;16.81;100.00;98694.09;5119401;28;19935;-66
2023/10/02 05:53:26;;;;;;;;;;;;;;;16.82;100.00;98701.09;5115856;28;19920;-66
2023/10/02 05:55:56;;;;;;;;;;;;;;;16.76;100.00;98704.94;5117761;28;19924;-67
2023/10/02 05:58:27;;;;;;;;;;;;;;;16.65;100.00;98701.50;5128796;28;20276;-67
2023/10/02 06:00:57;;;;;;;;;;;;;;;16.59;100.00;98697.25;5118896;28;20486;-67
2023/10/02 06:03:23;;;;;;;;;;;;;;;16.52;100.00;98704.84;5115737;28;19971;-67
2023/10/02 06:08:33;;;;;;;;;;;;;;;16.43;100.00;98719.22;5119787;28;19955;-67
2023/10/02 06:11:08;;;;;;;;;;;;;;;16.09;100.00;98711.84;5120301;28;19983;-68
2023/10/02 06:13:37;;;;;;;;;;;;;;;15.93;100.00;98715.75;5119932;28;19928;-67
2023/10/02 06:16:07;;;;;;;;;;;;;;;15.75;100.00;98721.78;5116934;28;19968;-67
2023/10/02 06:18:33;;;;;;;;;;;;;;;15.71;100.00;98715.31;5115360;28;19927;-66
2023/10/02 06:21:01;;;;;;;;;;;;;;;15.66;100.00;98720.72;5117779;28;19924;-66
2023/10/02 06:23:29;;;;;;;;;;;;;;;15.73;100.00;98718.53;5102101;28;19920;-66
2023/10/02 06:25:59;;;;;;;;;;;;;;;16.04;100.00;98728.06;5120127;28;19928;-66
2023/10/02 06:28:27;;;;;;;;;;;;;;;16.31;100.00;98729.53;5119927;28;19983;-66
2023/10/02 06:30:54;;;;;;;;;;;;;;;16.48;100.00;98727.25;5117575;28;19931;-66
2023/10/02 06:33:21;;;;;;;;;;;;;;;16.51;100.00;98732.06;5098031;28;19928;-66
2023/10/02 06:35:56;;;;;;;;;;;;;;;16.71;100.00;98721.97;5118108;28;19988;-66
2023/10/02 06:38:22;;;;;;;;;;;;;;;16.72;100.00;98725.47;5119714;28;19927;-66
2023/10/02 06:40:56;;;;;;;;;;;;;;;16.81;100.00;98723.75;5119742;28;19967;-67
2023/10/02 06:43:29;;;;;;;;;;;;;;;16.70;100.00;98722.25;5119653;28;19934;-67
2023/10/02 06:46:06;;;;;;;;;;;;;;;16.56;100.00;98730.16;5112664;28;19927;-67
2023/10/02 06:48:34;;;;;;;;;;;;;;;16.53;100.00;98736.09;5114547;28;19934;-65
2023/10/02 06:51:01;;;;;;;;;;;;;;;16.60;100.00;98728.53;5124465;28;19935;-66
2023/10/02 06:53:28;;;;;;;;;;;;;;;16.59;100.00;98734.19;5119607;28;19924;-67
2023/10/02 06:56:06;;;;;;;;;;;;;;;16.36;100.00;98737.59;5117085;28;19934;-66
2023/10/02 06:58:46;;;;;;;;;;;;;;;16.26;100.00;98729.56;5114030;28;19955;-67
2023/10/02 07:01:13;;;;;;;;;;;;;;;16.32;100.00;98728.44;5115539;28;20547;-67
2023/10/02 07:03:40;;;;;;;;;;;;;;;16.25;100.00;98736.06;5118302;28;19924;-66
2023/10/02 07:06:07;;;;;;;;;;;;;;;15.97;100.00;98743.72;5119328;28;19924;-68
2023/10/02 07:08:36;;;;;;;;;;;;;;;16.04;100.00;98735.34;5119204;28;20288;-67
2023/10/02 07:11:10;;;;;;;;;;;;;;;15.80;100.00;98745.16;5117917;28;19920;-66
2023/10/02 07:13:50;;;;;;;;;;;;;;;15.74;100.00;98754.34;5120316;28;19970;-67
2023/10/02 07:16:17;;;;;;;;;;;;;;;15.62;100.00;98751.97;5118494;28;19920;-68
2023/10/02 07:18:49;;;;;;;;;;;;;;;15.42;100.00;98752.81;5115880;28;19924;-68
2023/10/02 07:21:21;;;;;;;;;;;;;;;15.37;100.00;98754.72;5119249;28;19935;-66
2023/10/02 07:23:48;;;;;;;;;;;;;;;15.33;100.00;98749.06;5119438;28;19931;-67
2023/10/02 07:26:15;;;;;;;;;;;;;;;15.59;100.00;98753.34;5119360;28;19927;-67
2023/10/02 07:28:50;;;;;;;;;;;;;;;15.73;100.00;98750.84;5116761;28;19955;-67
2023/10/02 07:31:16;;;;;;;;;;;;;;;15.58;100.00;98745.53;5114835;28;19920;-67
2023/10/02 07:33:44;;;;;;;;;;;;;;;15.71;100.00;98744.94;5117951;28;19924;-67
2023/10/02 07:36:14;;;;;;;;;;;;;;;15.80;100.00;98748.66;5119500;28;19999;-67
2023/10/02 07:38:42;;;;;;;;;;;;;;;16.06;100.00;98746.66;5123119;28;19935;-67
2023/10/02 07:41:08;;;;;;;;;;;;;;;16.32;100.00;98747.31;5115287;28;20361;-68
2023/10/02 07:43:35;;;;;;;;;;;;;;;16.62;100.00;98755.19;5119681;28;19924;-68
2023/10/02 07:46:14;;;;;;;;;;;;;;;16.43;100.00;98748.88;5117092;28;19954;-68
2023/10/02 07:48:41;;;;;;;;;;;;;;;16.55;100.00;98750.16;5118886;28;19983;-68
2023/10/02 07:51:09;;;;;;;;;;;;;;;16.48;100.00;98751.50;5117992;28;19919;-68
2023/10/02 07:53:43;;;;;;;;;;;;;;;16.16;100.00;98760.88;5113519;28;20460;-68
2023/10/02 07:56:11;;;;;;;;;;;;;;;15.90;100.00;98747.81;5115157;28;19924;-68
2023/10/02 07:58:39;;;;;;;;;;;;;;;15.79;100.00;98749.75;5116035;28;19920;-68
2023/10/02 08:01:11;;;;;;;;;;;;;;;15.65;100.00;98751.44;5118409;28;20014;-68
2023/10/02 08:03:42;;;;;;;;;;;;;;;15.68;100.00;98742.00;5118181;28;19920;-68
2023/10/02 08:06:21;;;;;;;;;;;;;;;15.68;100.00;98745.50;5118044;28;19996;-68
2023/10/02 08:08:54;;;;;;;;;;;;;;;15.78;100.00;98748.16;5111616;28;19931;-68
2023/10/02 08:11:24;;;;;;;;;;;;;;;15.80;100.00;98737.91;5117201;28;20311;-68
2023/10/02 08:13:52;;;;;;;;;;;;;;;15.85;100.00;98745.94;5101023;28;19915;-68
2023/10/02 08:16:22;;;;;;;;;;;;;;;16.27;100.00;98741.97;5118940;28;19924;-68
2023/10/02 08:18:58;;;;;;;;;;;;;;;16.34;100.00;98745.94;5118072;28;19925;-68
2023/10/02 08:21:35;;;;;;;;;;;;;;;16.13;100.00;98745.25;5118243;28;19930;-68
2023/10/02 08:24:03;;;;;;;;;;;;;;;15.98;100.00;98748.03;5117718;28;19935;-67
2023/10/02 08:26:38;;;;;;;;;;;;;;;15.97;100.00;98743.72;5122670;28;19995;-68
2023/10/02 08:29:06;;;;;;;;;;;;;;;16.03;100.00;98741.84;5114812;28;19928;-68
2023/10/02 08:31:34;;;;;;;;;;;;;;;16.15;100.00;98745.78;5108272;28;20464;-68
2023/10/02 08:34:05;;;;;;;;;;;;;;;16.22;100.00;98736.59;5116740;28;19924;-68
2023/10/02 08:36:31;;;;;;;;;;;;;;;16.28;100.00;98738.97;5112926;28;19932;-68
2023/10/02 08:38:59;;;;;;;;;;;;;;;16.42;100.00;98731.06;5115936;28;19924;-68
2023/10/02 08:41:26;;;;;;;;;;;;;;;16.47;100.00;98736.41;5099846;28;19924;-68
2023/10/02 08:43:53;;;;;;;;;;;;;;;16.53;100.00;98732.59;5118167;28;19963;-68
2023/10/02 08:46:21;;;;;;;;;;;;;;;16.51;100.00;98729.38;5116583;28;19945;-67
2023/10/02 08:48:54;;;;;;;;;;;;;;;16.63;100.00;98727.16;5114983;28;20038;-68
2023/10/02 08:51:29;;;;;;;;;;;;;;;16.68;100.00;98721.75;5114212;28;19981;-67
2023/10/02 08:53:56;;;;;;;;;;;;;;;16.77;100.00;98724.63;5116362;28;19946;-66
2023/10/02 08:56:22;;;;;;;;;;;;;;;16.76;100.00;98733.78;5118281;28;19940;-67
2023/10/02 08:59:14;;;;;;;;;;;;;;;16.81;100.00;98720.25;5118227;28;19955;-67
2023/10/02 09:01:35;;;;;;;;;;;;;;;16.87;100.00;98725.31;5117856;28;19924;-67
2023/10/02 09:04:21;;;;;;;;;;;;;;;16.96;100.00;98723.63;5116557;28;19942;-67
2023/10/02 09:06:49;;;;;;;;;;;;;;;17.06;100.00;98725.41;5110482;28;19924;-67
2023/10/02 09:09:26;;;;;;;;;;;;;;;17.11;100.00;98723.47;5114071;28;19964;-67
2023/10/02 09:11:53;;;;;;;;;;;;;;;17.21;100.00;98720.66;5118164;28;19946;-67
2023/10/02 09:14:22;;;;;;;;;;;;;;;17.38;100.00;98728.34;5121533;28;19930;-67
2023/10/02 09:17:07;;;;;;;;;;;;;;;17.47;100.00;98725.78;5096792;28;19928;-67
2023/10/02 09:19:37;;;;;;;;;;;;;;;17.47;100.00;98726.59;5121433;28;19928;-68
2023/10/02 09:22:11;;;;;;;;;;;;;;;17.50;100.00;98711.72;5121774;28;19953;-67
2023/10/02 09:24:37;;;;;;;;;;;;;;;17.62;100.00;98718.34;5122190;28;19920;-67
2023/10/02 09:29:45;;;;;;;;;;;;;;;17.80;100.00;98706.78;5120549;28;19924;-67
2023/10/02 09:32:21;;;;;;;;;;;;;;;17.88;100.00;98704.53;5121073;28;19931;-67
2023/10/02 09:37:35;;;;;;;;;;;;;;;18.00;100.00;98705.69;5115217;28;19962;-67
2023/10/02 09:40:14;;;;;;;;;;;;;;;18.15;100.00;98701.97;5118450;28;20432;-67
2023/10/02 09:42:45;;;;;;;;;;;;;;;18.31;100.00;98693.34;5118841;28;20560;-67
2023/10/02 09:45:15;;;;;;;;;;;;;;;18.44;100.00;98688.28;5121011;28;19935;-67
2023/10/02 09:47:42;;;;;;;;;;;;;;;18.56;100.00;98675.13;5117576;28;19974;-68
2023/10/02 09:50:13;;;;;;;;;;;;;;;18.57;100.00;98682.16;5120527;28;19923;-67
2023/10/02 09:52:48;;;;;;;;;;;;;;;18.72;100.00;98679.19;5113581;28;19924;-68
2023/10/02 09:55:17;;;;;;;;;;;;;;;18.82;100.00;98674.41;5116923;28;19930;-67
2023/10/02 09:57:50;;;;;;;;;;;;;;;18.95;100.00;98678.22;5119718;28;19924;-68
2023/10/02 10:03:15;;;;;;;;;;;;;;;19.14;100.00;98660.00;5119929;28;19924;-67
2023/10/02 10:06:05;;;;;;;;;;;;;;;19.19;100.00;98673.44;5114796;28;19920;-68
2023/10/02 10:09:19;;;;;;;;;;;;;;;19.23;100.00;98666.31;5120409;28;19970;-67
2023/10/02 10:12:21;;;;;;;;;;;;;;;19.28;100.00;98660.78;5113253;28;19920;-67
2023/10/02 10:14:40;;;;;;;;;;;;;;;19.36;100.00;98662.00;5123566;28;19931;-68
2023/10/02 10:17:13;;;;;;;;;;;;;;;19.46;100.00;98663.75;5115336;28;19928;-67
2023/10/02 10:19:41;;;;;;;;;;;;;;;19.75;100.00;98656.06;5120738;28;19928;-67
2023/10/02 10:22:21;;;;;;;;;;;;;;;19.73;100.00;98656.38;5119717;28;19935;-67
2023/10/02 10:24:56;;;;;;;;;;;;;;;19.79;100.00;98646.22;5100540;28;19924;-67
2023/10/02 10:27:40;;;;;;;;;;;;;;;19.96;100.00;98653.72;5126482;28;19928;-66
2023/10/02 10:30:24;;;;;;;;;;;;;;;19.97;100.00;98650.69;5119540;28;19938;-68
2023/10/02 10:33:20;;;;;;;;;;;;;;;20.06;100.00;98646.16;5114223;28;20030;-68
2023/10/02 10:35:51;;;;;;;;;;;;;;;20.15;100.00;98647.00;5121644;28;19946;-66
2023/10/02 10:38:36;;;;;;;;;;;;;;;20.25;100.00;98635.94;5116132;28;19985;-67
2023/10/02 10:41:06;;;;;;;;;;;;;;;20.29;100.00;98639.66;5098121;28;19938;-68
2023/10/02 10:43:43;;;;;;;;;;;;;;;20.38;100.00;98632.38;5119373;28;19932;-67
2023/10/02 10:46:12;;;;;;;;;;;;;;;20.49;100.00;98640.28;5117572;28;19924;-67
2023/10/02 10:48:40;;;;;;;;;;;;;;;20.76;100.00;98631.97;5114145;28;19950;-69
2023/10/02 10:51:20;;;;;;;;;;;;;;;20.76;100.00;98640.13;5118897;28;19962;-67
2023/10/02 10:53:47;;;;;;;;;;;;;;;20.80;100.00;98631.03;5112090;28;20610;-67
2023/10/02 10:56:17;;;;;;;;;;;;;;;20.84;100.00;98632.00;5113151;28;19950;-67
2023/10/02 10:58:44;;;;;;;;;;;;;;;20.91;100.00;98631.56;5118014;28;20015;-67
2023/10/02 11:01:13;;;;;;;;;;;;;;;21.22;100.00;98618.78;5127987;28;19943;-67
2023/10/02 11:03:40;;;;;;;;;;;;;;;21.20;100.00;98626.44;5123115;28;19958;-66
2023/10/02 11:06:09;;;;;;;;;;;;;;;21.05;100.00;98615.97;5115963;28;20011;-66
2023/10/02 11:08:37;;;;;;;;;;;;;;;21.08;100.00;98609.91;5119086;28;19920;-67
2023/10/02 11:11:06;;;;;;;;;;;;;;;21.21;100.00;98609.03;5118818;28;19928;-67
2023/10/02 11:13:54;;;;;;;;;;;;;;;21.35;100.00;98606.19;5119097;28;20834;-67
2023/10/02 11:16:38;;;;;;;;;;;;;;;21.37;100.00;98603.97;5099428;28;19924;-68
2023/10/02 11:19:11;;;;;;;;;;;;;;;21.34;100.00;98604.59;5118271;28;19936;-66
2023/10/02 11:21:45;;;;;;;;;;;;;;;21.45;100.00;98595.81;5111553;28;19927;-67
2023/10/02 11:24:24;;;;;;;;;;;;;;;21.50;100.00;98601.13;5115366;28;19928;-68
2023/10/02 11:26:53;;;;;;;;;;;;;;;21.54;100.00;98593.91;5116967;28;19973;-69
2023/10/02 11:29:22;;;;;;;;;;;;;;;21.63;100.00;98595.84;5118687;28;20017;-68
2023/10/02 11:32:02;;;;;;;;;;;;;;;21.69;100.00;98591.88;5118785;28;19931;-67
2023/10/02 11:34:42;;;;;;;;;;;;;;;21.74;100.00;98587.06;5117791;28;19925;-68
2023/10/02 11:37:11;;;;;;;;;;;;;;;21.77;100.00;98589.16;5118382;28;20544;-67
2023/10/02 11:39:38;;;;;;;;;;;;;;;21.80;100.00;98590.41;5111440;28;19974;-67
2023/10/02 11:42:06;;;;;;;;;;;;;;;21.83;100.00;98576.19;5113101;28;19924;-67
2023/10/02 11:44:33;;;;;;;;;;;;;;;21.86;100.00;98581.78;5118428;28;19930;-68
2023/10/02 11:47:00;;;;;;;;;;;;;;;21.93;100.00;98570.47;5111763;28;19924;-67
2023/10/02 11:49:27;;;;;;;;;;;;;;;21.99;100.00;98569.97;5118181;28;19971;-67
2023/10/02 11:51:53;;;;;;;;;;;;;;;22.10;100.00;98573.16;5116877;28;19923;-67
2023/10/02 11:54:19;;;;;;;;;;;;;;;22.21;100.00;98552.66;5120568;28;19924;-67
2023/10/02 11:56:46;;;;;;;;;;;;;;;22.23;100.00;98558.59;5118598;28;20006;-66
2023/10/02 11:59:14;;;;;;;;;;;;;;;22.21;100.00;98555.41;5118135;28;19924;-66
2023/10/02 12:01:43;;;;;;;;;;;;;;;22.31;100.00;98554.25;5113720;28;20342;-67
2023/10/02 12:04:09;;;;;;;;;;;;;;;22.25;100.00;98545.44;5114309;28;19930;-67
2023/10/02 12:06:38;;;;;;;;;;;;;;;22.33;100.00;98547.38;5117699;28;19959;-67
2023/10/02 12:09:04;;;;;;;;;;;;;;;22.46;100.00;98540.94;5118016;28;19963;-67
2023/10/02 12:11:34;;;;;;;;;;;;;;;22.52;100.00;98536.09;5117812;28;19957;-67
2023/10/02 12:14:02;;;;;;;;;;;;;;;22.45;100.00;98539.31;5116342;28;19924;-67
2023/10/02 12:16:29;;;;;;;;;;;;;;;22.60;100.00;98549.69;5111807;28;19934;-68
2023/10/02 12:18:56;;;;;;;;;;;;;;;22.69;100.00;98537.97;5115100;28;19924;-69
2023/10/02 12:21:23;;;;;;;;;;;;;;;22.68;100.00;98530.94;5118089;28;19924;-68
2023/10/02 12:23:49;;;;;;;;;;;;;;;22.74;100.00;98540.53;5117988;28;19924;-68
2023/10/02 12:26:16;;;;;;;;;;;;;;;22.71;100.00;98543.91;5117756;28;19923;-68
2023/10/02 12:28:44;;;;;;;;;;;;;;;22.66;100.00;98527.75;5110848;28;19924;-67
2023/10/02 12:31:12;;;;;;;;;;;;;;;22.50;100.00;98533.69;5112945;28;20560;-68
2023/10/02 12:33:39;;;;;;;;;;;;;;;22.68;100.00;98522.78;5112020;28;19987;-68
2023/10/02 12:36:15;;;;;;;;;;;;;;;22.74;100.00;98513.31;5117662;28;19924;-68
2023/10/02 12:38:41;;;;;;;;;;;;;;;22.82;100.00;98512.44;5117867;28;19946;-68
2023/10/02 12:41:12;;;;;;;;;;;;;;;22.84;100.00;98515.66;5117788;28;19933;-68
2023/10/02 12:43:38;;;;;;;;;;;;;;;22.96;100.00;98510.31;5110878;28;19930;-68
2023/10/02 12:46:05;;;;;;;;;;;;;;;23.05;100.00;98505.59;5119566;28;19971;-68
2023/10/02 12:48:33;;;;;;;;;;;;;;;23.16;100.00;98503.28;5121971;28;19928;-68
2023/10/02 12:51:04;;;;;;;;;;;;;;;23.15;100.00;98501.72;5120255;28;19943;-68
2023/10/02 12:53:32;;;;;;;;;;;;;;;23.20;100.00;98496.06;5117014;28;19928;-69
2023/10/02 12:55:58;;;;;;;;;;;;;;;23.21;100.00;98495.72;5120121;28;20084;-67
2023/10/02 12:58:24;;;;;;;;;;;;;;;23.30;100.00;98496.47;5121560;28;19928;-68
2023/10/02 13:00:51;;;;;;;;;;;;;;;23.26;100.00;98489.28;5121633;28;19951;-68
2023/10/02 13:03:17;;;;;;;;;;;;;;;23.29;100.00;98492.13;5121756;28;19920;-68
2023/10/02 13:05:44;;;;;;;;;;;;;;;23.38;100.00;98489.34;5117779;28;19924;-68
2023/10/02 13:08:11;;;;;;;;;;;;;;;23.30;100.00;98492.94;5117841;28;19930;-68